Terminal Aerodrome Forecast
Issued by NWS King Salmon, AK

Home | Current Version | Previous Version | Text Only | Print | Product List | Glossary On
Versions: 1 2 3 4 5 6 7 8 9 10 11 12 13 14 15 16 17 18 19 20
000
FTAK31 PANC 251726
TAFAKN
TAF
PAKN 251726Z 2518/2618 VRB04KT P6SM -SHRA FEW004 SCT030 BKN050
      TEMPO 2518/2521 FEW004 BKN030 OVC040
     FM252100 05007KT P6SM -SHRA SCT025 BKN060
     FM260100 08009G18KT P6SM FEW040 OVC080
     FM260600 06006KT P6SM SCT150=

USA.gov is the U.S. government's official web portal to all federal, state and local government web resources and services.